Time;durP1;ratioP1;P1;durP2;ratioP2;P2;SDS_P1;SDS_P2;PMS_P1;PMS_P2;Temp;Humidity;BMP_temperature;BMP_pressure;BME280_temperature;BME280_humidity;BME280_pressure;Samples;Min_cycle;Max_cycle;Signal;HPM_P1;HPM_P2
2021/04/13 12:58:53;;;;;;;7.47;4.28;;;;;;;;;;5134889;27;20304;-77
2021/04/13 13:01:21;;;;;;;5.72;3.63;;;;;;;;;;5103424;28;20036;-75
2021/04/13 13:03:47;;;;;;;6.65;4.05;;;;;;;;;;5132620;27;20016;-75
2021/04/13 13:06:25;;;;;;;4.97;3.83;;;;;;;;;;5131050;28;20102;-75
2021/04/13 13:08:58;;;;;;;6.10;3.42;;;;;;;;;;5135307;28;20016;-77
2021/04/13 13:11:25;;;;;;;5.93;3.83;;;;;;;;;;5134005;28;20019;-77
2021/04/13 13:13:51;;;;;;;8.27;3.45;;;;;;;;;;5139428;28;20024;-76
2021/04/13 13:16:19;;;;;;;6.28;3.70;;;;;;;;;;5143901;28;20583;-77
2021/04/13 13:18:49;;;;;;;6.60;3.50;;;;;;;;;;5142943;28;20132;-77
2021/04/13 13:21:19;;;;;;;5.18;3.40;;;;;;;;;;5141903;27;20030;-77
2021/04/13 13:23:46;;;;;;;4.47;2.85;;;;;;;;;;5138238;28;20549;-77
2021/04/13 13:26:19;;;;;;;5.13;3.22;;;;;;;;;;5133995;28;20031;-77
2021/04/13 13:28:45;;;;;;;;;;;;;;;;;;5136856;28;20039;-76
2021/04/13 13:31:12;;;;;;;5.13;3.10;;;;;;;;;;5134124;27;19904;-78
2021/04/13 13:33:38;;;;;;;5.10;2.85;;;;;;;;;;5133455;28;20015;-78
2021/04/13 13:36:05;;;;;;;6.72;2.55;;;16.50;51.70;;;;;;5134888;28;20027;-77
2021/04/13 13:38:32;;;;;;;4.88;2.58;;;19.70;42.10;;;;;;5132271;27;20391;-77
2021/04/13 13:41:01;;;;;;;4.97;2.40;;;17.80;43.60;;;;;;5113556;28;20024;-77
2021/04/13 13:43:30;;;;;;;3.22;2.20;;;17.80;41.60;;;;;;5130249;28;20391;-77
2021/04/13 13:46:21;;;;;;;6.13;2.13;;;18.20;42.20;;;;;;5109194;28;20028;-77
2021/04/13 13:48:47;;;;;;;4.05;2.38;;;19.00;41.30;;;;;;5110069;28;20024;-77
2021/04/13 13:51:33;;;;;;;5.70;2.13;;;20.20;39.20;;;;;;5107949;28;20039;-77
2021/04/13 13:54:23;;;;;;;4.43;1.95;;;20.30;38.70;;;;;;5109039;28;20507;-77
2021/04/13 13:56:51;;;;;;;3.30;1.73;;;19.60;39.30;;;;;;5109986;28;20038;-77
2021/04/13 13:59:50;;;;;;;2.97;1.67;;;20.10;39.80;;;;;;5108413;28;20387;-77
2021/04/13 14:02:31;;;;;;;4.03;2.03;;;20.10;39.40;;;;;;5087344;28;20089;-77
2021/04/13 14:05:23;;;;;;;3.63;1.63;;;19.70;39.70;;;;;;5146432;27;20417;-77
2021/04/13 14:07:49;;;;;;;2.72;2.08;;;19.90;40.00;;;;;;5150248;27;20391;-77
2021/04/13 14:10:20;;;;;;;1.95;1.45;;;19.80;38.40;;;;;;5136677;27;20384;-77
2021/04/13 14:12:47;;;;;;;8.15;2.00;;;19.50;39.80;;;;;;5125905;27;20024;-77
2021/04/13 14:15:31;;;;;;;2.80;1.80;;;20.80;38.50;;;;;;5082309;28;20396;-77
2021/04/13 14:18:11;;;;;;;4.88;1.90;;;20.10;38.40;;;;;;5096620;28;20028;-76
2021/04/13 14:21:09;;;;;;;2.53;1.60;;;20.60;36.80;;;;;;5095438;28;20036;-77
2021/04/13 14:23:38;;;;;;;3.22;1.60;;;21.70;38.40;;;;;;5096646;28;20026;-77
2021/04/13 14:26:31;;;;;;;6.68;2.30;;;22.80;36.10;;;;;;5108996;28;20570;-76
2021/04/13 14:29:17;;;;;;;2.92;1.60;;;20.60;35.90;;;;;;5111520;28;20020;-76
2021/04/13 14:31:46;;;;;;;2.30;1.25;;;20.50;37.10;;;;;;5105740;28;20028;-77
2021/04/13 14:34:12;;;;;;;4.97;2.85;;;20.30;37.40;;;;;;5108062;28;20031;-77
2021/04/13 14:36:39;;;;;;;3.15;1.90;;;20.60;39.00;;;;;;5100276;28;20024;-77
2021/04/13 14:39:12;;;;;;;7.00;2.10;;;21.90;37.10;;;;;;5100432;28;20030;-76
2021/04/13 14:41:38;;;;;;;3.03;1.80;;;22.00;35.40;;;;;;5100408;28;20445;-77
2021/04/13 14:44:04;;;;;;;3.55;1.70;;;22.20;35.50;;;;;;5100743;28;20034;-77
2021/04/13 14:46:30;;;;;;;2.90;1.60;;;22.50;36.60;;;;;;5105354;28;20027;-76
2021/04/13 14:48:56;;;;;;;4.63;1.70;;;22.20;35.70;;;;;;5109804;27;20027;-76
2021/04/13 14:51:22;;;;;;;3.95;1.67;;;22.10;36.30;;;;;;5108594;28;20079;-77
2021/04/13 14:53:48;;;;;;;3.20;1.70;;;22.20;37.00;;;;;;5113136;28;20039;-77
2021/04/13 14:56:14;;;;;;;4.80;1.80;;;21.90;35.90;;;;;;5108539;28;20030;-77
2021/04/13 14:58:40;;;;;;;5.13;1.88;;;21.60;35.30;;;;;;5097110;28;20028;-77
2021/04/13 15:01:06;;;;;;;5.63;2.03;;;20.20;38.20;;;;;;5102620;28;20043;-77
2021/04/13 15:03:32;;;;;;;3.08;1.63;;;19.70;37.30;;;;;;5116191;28;20369;-77
2021/04/13 15:05:59;;;;;;;4.15;1.70;;;19.70;38.20;;;;;;5097393;28;20046;-76
2021/04/13 15:08:26;;;;;;;4.57;2.15;;;18.50;39.90;;;;;;5102731;28;20094;-77
2021/04/13 15:10:56;;;;;;;6.20;2.00;;;16.80;41.80;;;;;;5105269;28;20027;-76
2021/04/13 15:13:22;;;;;;;3.67;1.52;;;15.80;44.50;;;;;;5090595;28;20439;-77
2021/04/13 15:15:48;;;;;;;2.00;1.35;;;15.70;43.60;;;;;;5102448;28;20055;-77
2021/04/13 15:18:16;;;;;;;3.63;1.73;;;16.00;45.20;;;;;;5073393;28;20058;-77
2021/04/13 15:20:42;;;;;;;3.45;1.80;;;15.50;45.00;;;;;;5103003;28;20020;-77
2021/04/13 15:23:09;;;;;;;5.82;1.70;;;15.90;44.90;;;;;;5105708;28;20375;-77
2021/04/13 15:25:35;;;;;;;4.15;1.60;;;16.30;44.40;;;;;;5109938;28;20484;-76
2021/04/13 15:28:05;;;;;;;4.03;1.65;;;15.10;44.10;;;;;;5107973;28;20028;-76
2021/04/13 15:30:36;;;;;;;5.18;2.17;;;14.10;46.40;;;;;;5104712;28;20099;-76
2021/04/13 15:33:04;;;;;;;3.72;1.40;;;13.40;47.60;;;;;;5112647;28;20087;-76
2021/04/13 15:35:35;;;;;;;2.50;1.48;;;12.70;49.30;;;;;;5107231;28;20102;-76
2021/04/13 15:38:15;;;;;;;3.22;1.58;;;12.50;51.20;;;;;;5093630;28;20032;-76
2021/04/13 15:40:44;;;;;;;2.63;1.65;;;12.70;51.10;;;;;;5091261;28;20103;-76
2021/04/13 15:43:34;;;;;;;5.03;1.90;;;14.90;48.10;;;;;;5093005;28;20027;-77
2021/04/13 15:46:15;;;;;;;2.92;1.10;;;16.20;43.40;;;;;;5095980;28;20039;-79
2021/04/13 15:48:46;;;;;;;4.38;1.73;;;17.80;42.80;;;;;;5093565;28;20024;-78
2021/04/13 15:51:16;;;;;;;4.85;1.60;;;17.30;42.00;;;;;;5094047;28;20104;-76
2021/04/13 15:53:42;;;;;;;2.83;1.63;;;17.00;48.20;;;;;;5096070;28;20439;-76
2021/04/13 15:56:08;;;;;;;4.80;2.00;;;13.10;49.80;;;;;;5098619;28;20032;-77
2021/04/13 15:58:38;;;;;;;2.72;1.35;;;13.50;52.70;;;;;;5114523;28;20077;-77
2021/04/13 16:01:05;;;;;;;4.63;1.50;;;12.70;54.50;;;;;;5110861;28;20047;-77
2021/04/13 16:03:30;;;;;;;4.28;1.70;;;11.60;56.00;;;;;;5104253;28;20461;-77
2021/04/13 16:05:56;;;;;;;4.75;1.60;;;11.40;54.70;;;;;;5108040;28;20056;-76
2021/04/13 16:08:22;;;;;;;5.57;2.72;;;12.30;56.20;;;;;;5103433;28;20024;-75
2021/04/13 16:10:48;;;;;;;3.92;1.58;;;11.10;54.70;;;;;;5111065;28;20051;-75
2021/04/13 16:13:14;;;;;;;3.45;1.67;;;11.00;55.80;;;;;;5112549;28;20103;-75
2021/04/13 16:15:39;;;;;;;2.65;1.30;;;11.60;54.20;;;;;;5128688;28;20038;-74
2021/04/13 16:18:06;;;;;;;1.75;1.20;;;13.00;51.40;;;;;;5133706;28;20051;-75
2021/04/13 16:20:31;;;;;;;4.53;1.40;;;14.70;49.60;;;;;;5112695;28;20016;-76
2021/04/13 16:22:58;;;;;;;3.78;1.10;;;16.30;47.00;;;;;;5086269;28;20027;-77
2021/04/13 16:25:24;;;;;;;4.22;1.67;;;16.60;45.30;;;;;;5116401;28;20032;-77
2021/04/13 16:27:55;;;;;;;2.67;1.20;;;17.10;45.20;;;;;;5092343;28;20031;-76
2021/04/13 16:30:21;;;;;;;4.22;1.30;;;17.10;43.60;;;;;;5115835;28;20114;-77
2021/04/13 16:32:51;;;;;;;2.78;1.10;;;16.90;44.00;;;;;;5114247;28;20024;-77
2021/04/13 16:35:18;;;;;;;5.15;0.93;;;16.30;44.80;;;;;;5101770;28;20044;-78
2021/04/13 16:37:47;;;;;;;3.58;1.15;;;15.80;46.10;;;;;;5093328;28;20056;-76
2021/04/13 16:40:32;;;;;;;5.88;1.38;;;15.60;46.60;;;;;;5120045;28;20016;-75
2021/04/13 16:43:12;;;;;;;6.22;1.33;;;15.70;44.10;;;;;;5112276;28;20031;-75
2021/04/13 16:45:56;;;;;;;5.05;1.20;;;15.70;43.60;;;;;;5110028;28;20031;-76
2021/04/13 16:48:44;;;;;;;1.73;0.75;;;15.10;45.30;;;;;;5112787;28;20026;-76
2021/04/13 16:51:15;;;;;;;2.78;0.73;;;15.40;45.40;;;;;;5120281;28;20023;-76
2021/04/13 16:53:40;;;;;;;2.75;1.05;;;15.30;46.80;;;;;;5105998;28;20020;-76
2021/04/13 16:56:07;;;;;;;4.30;1.02;;;15.40;45.60;;;;;;5086390;28;20043;-76
2021/04/13 16:58:37;;;;;;;1.30;0.60;;;15.30;45.30;;;;;;5118342;28;20377;-75
2021/04/13 17:01:13;;;;;;;1.83;0.80;;;15.70;44.80;;;;;;5122873;28;20016;-76
2021/04/13 17:03:54;;;;;;;3.00;0.85;;;15.80;44.80;;;;;;5122807;28;20071;-74
2021/04/13 17:06:43;;;;;;;2.22;1.13;;;15.90;45.30;;;;;;5123065;28;20035;-77
2021/04/13 17:09:19;;;;;;;1.92;1.00;;;15.80;43.70;;;;;;5117506;28;20016;-76
2021/04/13 17:11:53;;;;;;;1.75;0.90;;;15.10;45.30;;;;;;5115856;28;20105;-76
2021/04/13 17:14:49;;;;;;;2.22;0.90;;;14.60;46.60;;;;;;5106711;28;20020;-76
2021/04/13 17:17:32;;;;;;;3.63;0.90;;;14.50;47.00;;;;;;5092908;28;20028;-76
2021/04/13 17:19:59;;;;;;;4.85;1.10;;;14.60;47.90;;;;;;5107689;28;20020;-76
2021/04/13 17:22:28;;;;;;;3.47;1.70;;;14.50;48.20;;;;;;5090537;28;20033;-76
2021/04/13 17:25:12;;;;;;;3.55;1.02;;;14.20;49.40;;;;;;5109812;28;20100;-75
2021/04/13 17:27:39;;;;;;;2.70;1.08;;;13.40;51.40;;;;;;5097188;28;20036;-74
2021/04/13 17:30:26;;;;;;;2.00;1.27;;;13.40;52.60;;;;;;5112894;28;20027;-78
2021/04/13 17:32:57;;;;;;;4.78;1.40;;;13.00;52.90;;;;;;5119595;28;20028;-74
2021/04/13 17:35:23;;;;;;;3.08;0.95;;;12.80;53.60;;;;;;5097730;28;20036;-75
2021/04/13 17:37:56;;;;;;;5.50;1.25;;;12.50;54.40;;;;;;5110142;28;20046;-76
2021/04/13 17:40:25;;;;;;;3.08;1.13;;;12.00;56.90;;;;;;5108483;28;20107;-77
2021/04/13 17:42:59;;;;;;;3.13;1.35;;;11.10;58.70;;;;;;5085151;28;20116;-76
2021/04/13 17:45:26;;;;;;;5.00;1.90;;;10.80;60.10;;;;;;5100383;28;20017;-76
2021/04/13 17:47:55;;;;;;;4.20;1.60;;;;;;;;;;5106907;28;20020;-75
2021/04/13 17:50:25;;;;;;;4.25;1.40;;;;;;;;;;5102737;28;20024;-76
2021/04/13 17:53:00;;;;;;;6.95;1.55;;;;;;;;;;5105414;28;20515;-76
2021/04/13 17:55:28;;;;;;;4.55;1.27;;;;;;;;;;5103693;28;20023;-75
2021/04/13 17:57:54;;;;;;;6.82;1.60;;;;;;;;;;5104297;28;20477;-76
2021/04/13 18:00:22;;;;;;;6.90;1.77;;;;;;;;;;5104645;28;20031;-76
2021/04/13 18:02:50;;;;;;;6.63;1.65;;;;;;;;;;5103912;28;20054;-76
2021/04/13 18:05:19;;;;;;;5.90;2.10;;;;;;;;;;5098667;28;20035;-75
2021/04/13 18:07:49;;;;;;;4.45;1.65;;;;;;;;;;5098381;28;20051;-76
2021/04/13 18:10:24;;;;;;;5.78;1.40;;;;;;;;;;5098863;28;20020;-76
2021/04/13 18:12:56;;;;;;;5.38;1.20;;;;;;;;;;5099899;28;20030;-76
2021/04/13 18:15:30;;;;;;;4.40;1.45;;;;;;;;;;5102024;28;20027;-75
2021/04/13 18:17:57;;;;;;;6.65;1.75;;;;;;;;;;5098753;28;20139;-75
2021/04/13 18:20:28;;;;;;;4.93;1.50;;;;;;;;;;5100460;28;20019;-75
2021/04/13 18:22:55;;;;;;;4.25;2.00;;;;;;;;;;5108943;28;20023;-74
2021/04/13 18:25:22;;;;;;;7.82;3.17;;;;;;;;;;5109094;28;20023;-75
2021/04/13 18:27:51;;;;;;;7.65;3.65;;;;;;;;;;5108791;28;20020;-75
2021/04/13 18:30:20;;;;;;;8.10;3.45;;;;;;;;;;5110139;28;20032;-75
2021/04/13 18:32:52;;;;;;;5.85;2.65;;;;;;;;;;5109374;28;20036;-76
2021/04/13 18:35:20;;;;;;;3.03;1.63;;;;;;;;;;5109933;28;20114;-76
2021/04/13 18:38:03;;;;;;;3.10;1.50;;;;;;;;;;5108297;28;20122;-76
2021/04/13 18:40:46;;;;;;;3.22;1.20;;;;;;;;;;5107888;28;20016;-76
2021/04/13 18:43:22;;;;;;;3.60;1.25;;;;;;;;;;5110967;28;20015;-78
2021/04/13 18:45:49;;;;;;;5.25;1.80;;;;;;;;;;5109608;28;20034;-77
2021/04/13 18:48:21;;;;;;;4.53;2.03;;;;;;;;;;5109789;28;20042;-77
2021/04/13 18:50:53;;;;;;;4.03;2.13;;;;;;;;;;5102267;28;20023;-77
2021/04/13 18:53:28;;;;;;;2.60;1.45;;;;;;;;;;5110726;28;20396;-77
2021/04/13 18:55:58;;;;;;;4.00;1.75;;;;;;;;;;5110115;28;20077;-77
